sensor_id;sensor_type;location;lat;lon;timestamp;pressure;altitude;pressure_sealevel;temperature;humidity
70902;BME280;58548;47.210;8.618;2023-03-01T00:01:40;94327.56;;;8.60;34.74
70902;BME280;58548;47.210;8.618;2023-03-01T00:04:09;94405.13;;;9.05;34.27
70902;BME280;58548;47.210;8.618;2023-03-01T00:06:35;94410.22;;;9.22;34.19
70902;BME280;58548;47.210;8.618;2023-03-01T00:09:01;94424.19;;;9.29;33.76
70902;BME280;58548;47.210;8.618;2023-03-01T00:11:31;94396.59;;;9.11;34.10
70902;BME280;58548;47.210;8.618;2023-03-01T00:13:59;94404.72;;;9.16;34.08
70902;BME280;58548;47.210;8.618;2023-03-01T00:16:32;94354.75;;;8.89;34.10
70902;BME280;58548;47.210;8.618;2023-03-01T00:19:02;94420.59;;;9.30;34.19
70902;BME280;58548;47.210;8.618;2023-03-01T00:21:28;94297.31;;;8.59;34.13
70902;BME280;58548;47.210;8.618;2023-03-01T00:23:55;94372.91;;;8.98;34.01
70902;BME280;58548;47.210;8.618;2023-03-01T00:26:25;94299.59;;;8.54;34.02
70902;BME280;58548;47.210;8.618;2023-03-01T00:28:52;94286.47;;;8.39;33.70
70902;BME280;58548;47.210;8.618;2023-03-01T00:31:23;94405.34;;;9.18;34.28
70902;BME280;58548;47.210;8.618;2023-03-01T00:33:53;94389.16;;;9.08;33.94
70902;BME280;58548;47.210;8.618;2023-03-01T00:36:25;94298.97;;;8.52;34.47
70902;BME280;58548;47.210;8.618;2023-03-01T00:38:52;94385.16;;;9.20;34.26
70902;BME280;58548;47.210;8.618;2023-03-01T00:41:19;94402.53;;;9.28;34.36
70902;BME280;58548;47.210;8.618;2023-03-01T00:43:46;94401.75;;;9.19;34.70
70902;BME280;58548;47.210;8.618;2023-03-01T00:46:17;94397.88;;;9.15;33.70
70902;BME280;58548;47.210;8.618;2023-03-01T00:48:45;94379.41;;;9.02;34.56
70902;BME280;58548;47.210;8.618;2023-03-01T00:51:18;94400.47;;;9.15;33.88
70902;BME280;58548;47.210;8.618;2023-03-01T00:53:49;94405.34;;;9.18;34.41
70902;BME280;58548;47.210;8.618;2023-03-01T00:56:19;94291.81;;;8.46;34.36
70902;BME280;58548;47.210;8.618;2023-03-01T00:58:45;94395.16;;;9.09;34.86
70902;BME280;58548;47.210;8.618;2023-03-01T01:01:17;94388.84;;;9.03;34.25
70902;BME280;58548;47.210;8.618;2023-03-01T01:03:58;94401.75;;;8.96;34.55
70902;BME280;58548;47.210;8.618;2023-03-01T01:06:30;94278.22;;;8.27;34.06
70902;BME280;58548;47.210;8.618;2023-03-01T01:08:59;94390.34;;;8.97;34.75
70902;BME280;58548;47.210;8.618;2023-03-01T01:11:28;94229.28;;;7.99;35.09
70902;BME280;58548;47.210;8.618;2023-03-01T01:13:55;94271.06;;;8.29;34.55
70902;BME280;58548;47.210;8.618;2023-03-01T01:16:23;94384.50;;;8.95;34.96
70902;BME280;58548;47.210;8.618;2023-03-01T01:18:49;94369.66;;;8.96;34.82
70902;BME280;58548;47.210;8.618;2023-03-01T01:21:17;94248.69;;;8.20;34.76
70902;BME280;58548;47.210;8.618;2023-03-01T01:23:48;94369.75;;;9.11;34.32
70902;BME280;58548;47.210;8.618;2023-03-01T01:26:21;94341.19;;;8.94;34.68
70902;BME280;58548;47.210;8.618;2023-03-01T01:28:48;94275.19;;;8.55;34.79
70902;BME280;58548;47.210;8.618;2023-03-01T01:31:18;94240.78;;;8.37;34.27
70902;BME280;58548;47.210;8.618;2023-03-01T01:33:49;94368.94;;;9.10;34.37
70902;BME280;58548;47.210;8.618;2023-03-01T01:36:17;94349.88;;;9.10;34.62
70902;BME280;58548;47.210;8.618;2023-03-01T01:38:47;94246.63;;;8.39;34.65
70902;BME280;58548;47.210;8.618;2023-03-01T01:41:14;94224.94;;;8.23;34.61
70902;BME280;58548;47.210;8.618;2023-03-01T01:43:43;94349.69;;;9.11;34.33
70902;BME280;58548;47.210;8.618;2023-03-01T01:49:01;94222.75;;;8.35;34.44
70902;BME280;58548;47.210;8.618;2023-03-01T01:51:37;94235.88;;;8.42;34.23
70902;BME280;58548;47.210;8.618;2023-03-01T01:54:15;94347.09;;;9.11;34.50
70902;BME280;58548;47.210;8.618;2023-03-01T01:56:51;94353.47;;;9.09;34.56
70902;BME280;58548;47.210;8.618;2023-03-01T01:59:20;94337.38;;;9.05;34.70
70902;BME280;58548;47.210;8.618;2023-03-01T02:01:54;94341.44;;;9.08;34.65
70902;BME280;58548;47.210;8.618;2023-03-01T02:04:22;94332.63;;;9.09;34.40
70902;BME280;58548;47.210;8.618;2023-03-01T02:07:16;94334.25;;;9.10;34.98
70902;BME280;58548;47.210;8.618;2023-03-01T02:09:46;94271.84;;;8.70;34.84
70902;BME280;58548;47.210;8.618;2023-03-01T02:12:15;94299.56;;;8.86;34.95
70902;BME280;58548;47.210;8.618;2023-03-01T02:14:44;94335.06;;;9.10;34.55
70902;BME280;58548;47.210;8.618;2023-03-01T02:17:13;94295.94;;;8.95;34.66
70902;BME280;58548;47.210;8.618;2023-03-01T02:22:18;94199.50;;;8.34;34.37
70902;BME280;58548;47.210;8.618;2023-03-01T02:27:22;94268.03;;;8.81;34.55
70902;BME280;58548;47.210;8.618;2023-03-01T02:29:52;94316.19;;;9.08;34.66
70902;BME280;58548;47.210;8.618;2023-03-01T02:32:22;94173.47;;;8.34;34.80
70902;BME280;58548;47.210;8.618;2023-03-01T02:34:53;94302.28;;;9.16;34.21
70902;BME280;58548;47.210;8.618;2023-03-01T02:37:24;94309.69;;;9.27;34.93
70902;BME280;58548;47.210;8.618;2023-03-01T02:39:59;94291.78;;;9.09;34.91
70902;BME280;58548;47.210;8.618;2023-03-01T02:42:40;94254.16;;;8.88;34.63
70902;BME280;58548;47.210;8.618;2023-03-01T02:45:08;94297.31;;;9.06;34.79
70902;BME280;58548;47.210;8.618;2023-03-01T02:47:35;94294.38;;;9.09;34.84
70902;BME280;58548;47.210;8.618;2023-03-01T02:53:33;94203.00;;;8.49;34.80
70902;BME280;58548;47.210;8.618;2023-03-01T02:55:53;94300.19;;;9.11;34.97
70902;BME280;58548;47.210;8.618;2023-03-01T02:58:19;94289.16;;;9.09;34.23
70902;BME280;58548;47.210;8.618;2023-03-01T03:00:46;94293.84;;;9.14;34.63
70902;BME280;58548;47.210;8.618;2023-03-01T03:03:20;94283.75;;;9.11;34.42
70902;BME280;58548;47.210;8.618;2023-03-01T03:05:48;94169.66;;;8.44;34.10
70902;BME280;58548;47.210;8.618;2023-03-01T03:08:19;94082.06;;;7.90;34.79
70902;BME280;58548;47.210;8.618;2023-03-01T03:10:49;94266.50;;;9.10;34.57
70902;BME280;58548;47.210;8.618;2023-03-01T03:13:19;94279.19;;;9.13;34.71
70902;BME280;58548;47.210;8.618;2023-03-01T03:15:48;94252.25;;;8.82;34.41
70902;BME280;58548;47.210;8.618;2023-03-01T03:18:18;94191.66;;;8.42;34.82
70902;BME280;58548;47.210;8.618;2023-03-01T03:20:49;94285.41;;;8.88;34.95
70902;BME280;58548;47.210;8.618;2023-03-01T03:23:21;94291.53;;;8.96;35.27
70902;BME280;58548;47.210;8.618;2023-03-01T03:25:49;94279.50;;;8.95;35.22
70902;BME280;58548;47.210;8.618;2023-03-01T03:28:17;94268.63;;;8.91;34.89
70902;BME280;58548;47.210;8.618;2023-03-01T03:30:45;94143.16;;;8.18;35.14
70902;BME280;58548;47.210;8.618;2023-03-01T03:33:12;94243.59;;;8.82;35.08
70902;BME280;58548;47.210;8.618;2023-03-01T03:35:48;94281.59;;;8.99;35.18
70902;BME280;58548;47.210;8.618;2023-03-01T03:38:17;94243.97;;;8.79;35.22
70902;BME280;58548;47.210;8.618;2023-03-01T03:41:06;94257.25;;;8.84;35.00
70902;BME280;58548;47.210;8.618;2023-03-01T03:43:35;94271.16;;;8.99;35.14
70902;BME280;58548;47.210;8.618;2023-03-01T03:46:04;94273.78;;;8.99;35.19
70902;BME280;58548;47.210;8.618;2023-03-01T03:48:40;94272.41;;;9.03;34.89
70902;BME280;58548;47.210;8.618;2023-03-01T03:51:11;94173.47;;;8.34;34.76
70902;BME280;58548;47.210;8.618;2023-03-01T03:53:37;94254.16;;;8.88;35.47
70902;BME280;58548;47.210;8.618;2023-03-01T03:56:03;94272.31;;;8.97;35.76
70902;BME280;58548;47.210;8.618;2023-03-01T03:58:34;94248.38;;;8.78;35.51
70902;BME280;58548;47.210;8.618;2023-03-01T04:01:01;94278.44;;;9.04;34.78
70902;BME280;58548;47.210;8.618;2023-03-01T04:03:28;94254.50;;;8.85;35.29
70902;BME280;58548;47.210;8.618;2023-03-01T04:05:58;94286.91;;;9.06;35.59
70902;BME280;58548;47.210;8.618;2023-03-01T04:08:24;94273.34;;;9.11;35.24
70902;BME280;58548;47.210;8.618;2023-03-01T04:10:56;94268.13;;;9.11;35.07
70902;BME280;58548;47.210;8.618;2023-03-01T04:13:22;94161.44;;;8.33;35.13
70902;BME280;58548;47.210;8.618;2023-03-01T04:15:54;94204.03;;;8.63;35.72
70902;BME280;58548;47.210;8.618;2023-03-01T04:18:24;94219.78;;;8.70;35.05
70902;BME280;58548;47.210;8.618;2023-03-01T04:20:50;94269.72;;;8.97;35.49
70902;BME280;58548;47.210;8.618;2023-03-01T04:23:19;94264.84;;;8.94;35.37
70902;BME280;58548;47.210;8.618;2023-03-01T04:25:52;94268.38;;;9.01;35.77
70902;BME280;58548;47.210;8.618;2023-03-01T04:28:34;94268.38;;;9.01;35.20
70902;BME280;58548;47.210;8.618;2023-03-01T04:31:11;94281.69;;;9.06;35.50
70902;BME280;58548;47.210;8.618;2023-03-01T04:33:52;94277.59;;;8.88;35.32
70902;BME280;58548;47.210;8.618;2023-03-01T04:36:24;94267.19;;;8.88;35.17
70902;BME280;58548;47.210;8.618;2023-03-01T04:38:53;94145.66;;;8.11;35.30
70902;BME280;58548;47.210;8.618;2023-03-01T04:41:23;94233.91;;;8.75;35.32
70902;BME280;58548;47.210;8.618;2023-03-01T04:43:51;94280.41;;;9.02;34.90
70902;BME280;58548;47.210;8.618;2023-03-01T04:46:19;94154.28;;;8.11;35.33
70902;BME280;58548;47.210;8.618;2023-03-01T04:48:46;94265.59;;;8.79;35.52
70902;BME280;58548;47.210;8.618;2023-03-01T04:51:13;94227.31;;;8.65;35.48
70902;BME280;58548;47.210;8.618;2023-03-01T04:53:39;94211.44;;;8.51;35.57
70902;BME280;58548;47.210;8.618;2023-03-01T04:56:05;94148.56;;;8.16;35.76
70902;BME280;58548;47.210;8.618;2023-03-01T04:58:34;94143.47;;;8.23;35.29
70902;BME280;58548;47.210;8.618;2023-03-01T05:01:08;94261.34;;;8.86;35.52
70902;BME280;58548;47.210;8.618;2023-03-01T05:03:46;94162.72;;;8.13;35.70
70902;BME280;58548;47.210;8.618;2023-03-01T05:06:13;94256.34;;;8.77;35.42
70902;BME280;58548;47.210;8.618;2023-03-01T05:08:42;94137.84;;;8.11;35.36
70902;BME280;58548;47.210;8.618;2023-03-01T05:11:09;94144.34;;;8.15;35.67
70902;BME280;58548;47.210;8.618;2023-03-01T05:13:41;94144.94;;;8.25;36.17
70902;BME280;58548;47.210;8.618;2023-03-01T05:16:15;94247.31;;;8.87;35.44
70902;BME280;58548;47.210;8.618;2023-03-01T05:18:42;94132.75;;;8.18;35.53
70902;BME280;58548;47.210;8.618;2023-03-01T05:21:13;94246.16;;;8.90;35.41
70902;BME280;58548;47.210;8.618;2023-03-01T05:23:44;94237.72;;;8.88;35.44
70902;BME280;58548;47.210;8.618;2023-03-01T05:26:10;94132.53;;;8.27;35.30
70902;BME280;58548;47.210;8.618;2023-03-01T05:28:38;94231.28;;;8.99;35.64
70902;BME280;58548;47.210;8.618;2023-03-01T05:31:05;94198.25;;;8.76;35.59
70902;BME280;58548;47.210;8.618;2023-03-01T05:33:41;94193.19;;;8.59;35.44
70902;BME280;58548;47.210;8.618;2023-03-01T05:36:08;94184.38;;;8.60;36.06
70902;BME280;58548;47.210;8.618;2023-03-01T05:38:35;94096.25;;;8.11;35.35
70902;BME280;58548;47.210;8.618;2023-03-01T05:41:04;94201.94;;;8.82;35.42
70902;BME280;58548;47.210;8.618;2023-03-01T05:43:31;94216.97;;;8.95;35.19
70902;BME280;58548;47.210;8.618;2023-03-01T05:45:59;94026.50;;;7.68;35.40
70902;BME280;58548;47.210;8.618;2023-03-01T05:48:25;94189.56;;;8.84;35.06
70902;BME280;58548;47.210;8.618;2023-03-01T05:50:53;94014.78;;;7.72;35.37
70902;BME280;58548;47.210;8.618;2023-03-01T05:53:22;94196.91;;;8.80;35.17
70902;BME280;58548;47.210;8.618;2023-03-01T05:55:48;94105.97;;;8.17;35.51
70902;BME280;58548;47.210;8.618;2023-03-01T05:58:18;94216.41;;;8.84;35.10
70902;BME280;58548;47.210;8.618;2023-03-01T06:00:47;94200.69;;;8.78;35.36
70902;BME280;58548;47.210;8.618;2023-03-01T06:03:17;94174.91;;;8.68;35.24
70902;BME280;58548;47.210;8.618;2023-03-01T06:05:47;94206.34;;;8.81;35.96
70902;BME280;58548;47.210;8.618;2023-03-01T06:08:13;94213.63;;;8.86;35.58
70902;BME280;58548;47.210;8.618;2023-03-01T06:10:39;94109.66;;;8.23;35.77
70902;BME280;58548;47.210;8.618;2023-03-01T06:13:08;94088.78;;;8.31;35.26
70902;BME280;58548;47.210;8.618;2023-03-01T06:15:33;94189.09;;;8.80;35.04
70902;BME280;58548;47.210;8.618;2023-03-01T06:17:59;94093.59;;;8.19;35.51
70902;BME280;58548;47.210;8.618;2023-03-01T06:20:27;94208.97;;;8.81;35.84
70902;BME280;58548;47.210;8.618;2023-03-01T06:22:53;94200.97;;;8.83;35.69
70902;BME280;58548;47.210;8.618;2023-03-01T06:25:25;94162.63;;;8.53;35.67
70902;BME280;58548;47.210;8.618;2023-03-01T06:27:53;94195.00;;;8.74;36.11
70902;BME280;58548;47.210;8.618;2023-03-01T06:30:22;94183.44;;;8.53;35.74
70902;BME280;58548;47.210;8.618;2023-03-01T06:32:51;94178.19;;;8.62;35.75
70902;BME280;58548;47.210;8.618;2023-03-01T06:35:19;94170.28;;;8.55;35.65
70902;BME280;58548;47.210;8.618;2023-03-01T06:37:50;94077.28;;;8.02;35.55
70902;BME280;58548;47.210;8.618;2023-03-01T06:40:16;94212.53;;;8.80;35.35
70902;BME280;58548;47.210;8.618;2023-03-01T06:42:47;94090.13;;;8.04;35.66
70902;BME280;58548;47.210;8.618;2023-03-01T06:45:15;94195.00;;;8.74;35.26
70902;BME280;58548;47.210;8.618;2023-03-01T06:47:44;94203.81;;;8.73;35.68
70902;BME280;58548;47.210;8.618;2023-03-01T06:50:13;94187.97;;;8.59;35.66
70902;BME280;58548;47.210;8.618;2023-03-01T06:52:42;94163.97;;;8.49;35.34
70902;BME280;58548;47.210;8.618;2023-03-01T06:55:15;94199.63;;;8.87;35.43
70902;BME280;58548;47.210;8.618;2023-03-01T06:57:46;94005.75;;;7.60;35.49
70902;BME280;58548;47.210;8.618;2023-03-01T07:00:15;94197.22;;;8.85;35.29
70902;BME280;58548;47.210;8.618;2023-03-01T07:02:41;94075.44;;;8.11;35.65
70902;BME280;58548;47.210;8.618;2023-03-01T07:05:10;94196.31;;;8.93;35.44
70902;BME280;58548;47.210;8.618;2023-03-01T07:07:38;94205.56;;;8.96;35.04
70902;BME280;58548;47.210;8.618;2023-03-01T07:10:04;94202.69;;;8.90;35.40
70902;BME280;58548;47.210;8.618;2023-03-01T07:12:33;94211.31;;;8.91;35.84
70902;BME280;58548;47.210;8.618;2023-03-01T07:14:59;94174.28;;;8.81;35.18
70902;BME280;58548;47.210;8.618;2023-03-01T07:17:27;94194.44;;;9.02;35.17
70902;BME280;58548;47.210;8.618;2023-03-01T07:19:56;94085.75;;;8.42;34.59
70902;BME280;58548;47.210;8.618;2023-03-01T07:22:23;94093.03;;;8.47;34.62
70902;BME280;58548;47.210;8.618;2023-03-01T07:24:49;94167.06;;;9.06;34.74
70902;BME280;58548;47.210;8.618;2023-03-01T07:27:14;94204.56;;;9.50;34.52
70902;BME280;58548;47.210;8.618;2023-03-01T07:29:40;94204.53;;;9.35;34.63
70902;BME280;58548;47.210;8.618;2023-03-01T07:32:09;94111.16;;;8.64;34.38
70902;BME280;58548;47.210;8.618;2023-03-01T07:34:38;94204.66;;;9.27;34.55
70902;BME280;58548;47.210;8.618;2023-03-01T07:37:04;94208.25;;;9.26;34.38
70902;BME280;58548;47.210;8.618;2023-03-01T07:39:32;94213.34;;;9.34;34.23
70902;BME280;58548;47.210;8.618;2023-03-01T07:42:00;94193.13;;;9.36;34.36
70902;BME280;58548;47.210;8.618;2023-03-01T07:44:26;94200.97;;;9.21;34.62
70902;BME280;58548;47.210;8.618;2023-03-01T07:46:52;94194.00;;;9.13;34.80
70902;BME280;58548;47.210;8.618;2023-03-01T07:49:22;94170.56;;;9.13;34.74
70902;BME280;58548;47.210;8.618;2023-03-01T07:51:50;94193.13;;;9.36;34.36
70902;BME280;58548;47.210;8.618;2023-03-01T07:54:18;94086.09;;;8.63;34.46
70902;BME280;58548;47.210;8.618;2023-03-01T07:56:45;94105.97;;;8.94;34.03
70902;BME280;58548;47.210;8.618;2023-03-01T07:59:13;94193.22;;;9.43;34.40
70902;BME280;58548;47.210;8.618;2023-03-01T08:01:39;94067.31;;;8.29;34.17
70902;BME280;58548;47.210;8.618;2023-03-01T08:04:05;94088.13;;;8.52;34.66
70902;BME280;58548;47.210;8.618;2023-03-01T08:06:35;94076.75;;;8.30;34.65
70902;BME280;58548;47.210;8.618;2023-03-01T08:09:02;94083.09;;;8.27;35.02
70902;BME280;58548;47.210;8.618;2023-03-01T08:11:30;94104.44;;;8.46;34.21
70902;BME280;58548;47.210;8.618;2023-03-01T08:13:58;94055.19;;;8.21;34.48
70902;BME280;58548;47.210;8.618;2023-03-01T08:16:26;94194.75;;;9.07;34.41
70902;BME280;58548;47.210;8.618;2023-03-01T08:18:52;94183.84;;;9.03;34.54
70902;BME280;58548;47.210;8.618;2023-03-01T08:21:18;94160.75;;;9.00;34.08
70902;BME280;58548;47.210;8.618;2023-03-01T08:23:44;94104.38;;;8.54;34.21
70902;BME280;58548;47.210;8.618;2023-03-01T08:26:13;94180.34;;;9.11;34.30
70902;BME280;58548;47.210;8.618;2023-03-01T08:28:42;94074.47;;;8.50;35.05
70902;BME280;58548;47.210;8.618;2023-03-01T08:31:21;94152.22;;;9.07;34.10
70902;BME280;58548;47.210;8.618;2023-03-01T08:33:51;94165.63;;;9.18;33.71
70902;BME280;58548;47.210;8.618;2023-03-01T08:36:19;94185.03;;;9.46;33.98
70902;BME280;58548;47.210;8.618;2023-03-01T08:38:46;94178.88;;;9.32;33.86
70902;BME280;58548;47.210;8.618;2023-03-01T08:41:13;94070.75;;;8.68;34.08
70902;BME280;58548;47.210;8.618;2023-03-01T08:43:39;94052.75;;;8.43;34.48
70902;BME280;58548;47.210;8.618;2023-03-01T08:46:04;94174.59;;;9.01;34.29
70902;BME280;58548;47.210;8.618;2023-03-01T08:48:30;94059.56;;;8.44;34.13
70902;BME280;58548;47.210;8.618;2023-03-01T08:51:16;94077.47;;;8.62;34.57
70902;BME280;58548;47.210;8.618;2023-03-01T08:53:44;94171.19;;;9.15;34.69
70902;BME280;58548;47.210;8.618;2023-03-01T08:56:14;94173.38;;;9.27;34.50
70902;BME280;58548;47.210;8.618;2023-03-01T08:58:43;94144.25;;;9.08;34.42
70902;BME280;58548;47.210;8.618;2023-03-01T09:01:14;94158.81;;;9.17;33.83
70902;BME280;58548;47.210;8.618;2023-03-01T09:03:41;94172.19;;;9.14;34.02
70902;BME280;58548;47.210;8.618;2023-03-01T09:06:10;94165.53;;;9.12;34.22
70902;BME280;58548;47.210;8.618;2023-03-01T09:08:38;94046.84;;;8.49;34.15
70902;BME280;58548;47.210;8.618;2023-03-01T09:11:06;94172.28;;;9.36;34.54
70902;BME280;58548;47.210;8.618;2023-03-01T09:13:32;94157.91;;;9.40;34.06
70902;BME280;58548;47.210;8.618;2023-03-01T09:16:02;94158.47;;;9.50;34.15
70902;BME280;58548;47.210;8.618;2023-03-01T09:18:31;94050.56;;;8.85;34.06
70902;BME280;58548;47.210;8.618;2023-03-01T09:21:24;94156.28;;;9.69;33.66
70902;BME280;58548;47.210;8.618;2023-03-01T09:23:52;94155.91;;;9.72;33.77
70902;BME280;58548;47.210;8.618;2023-03-01T09:26:20;94153.94;;;9.74;33.69
70902;BME280;58548;47.210;8.618;2023-03-01T09:28:49;94148.72;;;9.74;33.84
70902;BME280;58548;47.210;8.618;2023-03-01T09:31:19;94145.59;;;9.64;33.36
70902;BME280;58548;47.210;8.618;2023-03-01T09:33:50;94152.69;;;9.40;33.83
70902;BME280;58548;47.210;8.618;2023-03-01T09:36:20;94160.59;;;9.62;33.82
70902;BME280;58548;47.210;8.618;2023-03-01T09:38:47;94109.78;;;9.58;33.75
70902;BME280;58548;47.210;8.618;2023-03-01T09:41:30;94152.53;;;9.93;33.65
70902;BME280;58548;47.210;8.618;2023-03-01T09:44:23;94142.66;;;9.89;34.07
70902;BME280;58548;47.210;8.618;2023-03-01T09:46:53;94126.16;;;10.03;32.93
70902;BME280;58548;47.210;8.618;2023-03-01T09:49:26;94140.34;;;10.16;33.93
70902;BME280;58548;47.210;8.618;2023-03-01T09:52:03;94120.81;;;10.11;33.10
70902;BME280;58548;47.210;8.618;2023-03-01T09:54:32;94016.56;;;9.60;32.63
70902;BME280;58548;47.210;8.618;2023-03-01T09:57:20;94045.13;;;9.68;32.53
70902;BME280;58548;47.210;8.618;2023-03-01T10:00:22;94016.88;;;9.50;32.69
70902;BME280;58548;47.210;8.618;2023-03-01T10:08:50;94123.56;;;10.25;32.67
70902;BME280;58548;47.210;8.618;2023-03-01T10:11:29;94016.94;;;9.57;32.67
70902;BME280;58548;47.210;8.618;2023-03-01T10:14:33;94128.56;;;10.41;32.77
70902;BME280;58548;47.210;8.618;2023-03-01T10:17:26;94128.91;;;10.38;31.84
70902;BME280;58548;47.210;8.618;2023-03-01T10:19:53;94112.94;;;10.26;32.05
70902;BME280;58548;47.210;8.618;2023-03-01T10:22:26;93993.34;;;9.65;31.71
70902;BME280;58548;47.210;8.618;2023-03-01T10:24:57;94097.88;;;10.29;32.05
70902;BME280;58548;47.210;8.618;2023-03-01T10:27:51;94135.44;;;10.49;31.60
70902;BME280;58548;47.210;8.618;2023-03-01T10:30:39;94041.03;;;10.02;31.47
70902;BME280;58548;47.210;8.618;2023-03-01T10:33:20;94124.72;;;10.59;31.68
70902;BME280;58548;47.210;8.618;2023-03-01T10:35:50;94021.69;;;9.90;31.98
70902;BME280;58548;47.210;8.618;2023-03-01T10:38:20;94102.97;;;10.37;31.35
70902;BME280;58548;47.210;8.618;2023-03-01T10:40:57;94126.44;;;10.52;31.34
70902;BME280;58548;47.210;8.618;2023-03-01T10:43:48;94125.91;;;10.63;31.69
70902;BME280;58548;47.210;8.618;2023-03-01T10:49:23;94122.44;;;10.78;31.16
70902;BME280;58548;47.210;8.618;2023-03-01T10:51:54;94111.31;;;10.97;30.85
70902;BME280;58548;47.210;8.618;2023-03-01T10:56:54;94121.72;;;11.19;31.25
70902;BME280;58548;47.210;8.618;2023-03-01T10:59:28;94090.78;;;10.94;30.85
70902;BME280;58548;47.210;8.618;2023-03-01T11:02:28;94109.31;;;10.99;31.21
70902;BME280;58548;47.210;8.618;2023-03-01T11:07:53;94003.63;;;10.38;30.98
70902;BME280;58548;47.210;8.618;2023-03-01T11:10:25;94106.72;;;10.99;31.05
70902;BME280;58548;47.210;8.618;2023-03-01T11:13:27;94119.00;;;11.06;31.14
70902;BME280;58548;47.210;8.618;2023-03-01T11:16:03;94115.06;;;10.88;30.57
70902;BME280;58548;47.210;8.618;2023-03-01T11:18:34;94115.97;;;11.02;31.01
70902;BME280;58548;47.210;8.618;2023-03-01T11:21:03;94109.59;;;11.11;30.94
70902;BME280;58548;47.210;8.618;2023-03-01T11:23:37;94115.00;;;11.10;30.86
70902;BME280;58548;47.210;8.618;2023-03-01T11:26:09;94010.81;;;10.36;31.15
70902;BME280;58548;47.210;8.618;2023-03-01T11:28:41;94020.47;;;10.64;30.60
70902;BME280;58548;47.210;8.618;2023-03-01T11:31:13;94106.56;;;11.14;30.42
70902;BME280;58548;47.210;8.618;2023-03-01T11:34:03;94093.78;;;11.26;30.79
70902;BME280;58548;47.210;8.618;2023-03-01T11:36:56;94094.69;;;11.05;30.32
70902;BME280;58548;47.210;8.618;2023-03-01T11:39:42;93949.22;;;10.14;30.68
70902;BME280;58548;47.210;8.618;2023-03-01T11:42:17;94094.91;;;11.10;31.01
70902;BME280;58548;47.210;8.618;2023-03-01T11:44:48;94089.53;;;11.25;30.64
70902;BME280;58548;47.210;8.618;2023-03-01T11:47:21;94014.50;;;10.77;30.29
70902;BME280;58548;47.210;8.618;2023-03-01T11:50:19;94076.16;;;11.42;30.97
70902;BME280;58548;47.210;8.618;2023-03-01T11:53:23;94079.97;;;11.39;30.45
70902;BME280;58548;47.210;8.618;2023-03-01T12:21:04;94049.41;;;12.09;29.31
70902;BME280;58548;47.210;8.618;2023-03-01T12:27:11;94058.00;;;11.96;28.99
70902;BME280;58548;47.210;8.618;2023-03-01T12:32:52;94053.78;;;11.95;29.96
70902;BME280;58548;47.210;8.618;2023-03-01T12:35:53;94036.06;;;11.83;29.79
70902;BME280;58548;47.210;8.618;2023-03-01T12:44:01;93934.31;;;11.20;30.39
70902;BME280;58548;47.210;8.618;2023-03-01T12:49:42;93965.94;;;11.45;30.36
70902;BME280;58548;47.210;8.618;2023-03-01T12:52:38;94022.38;;;11.81;29.62
70902;BME280;58548;47.210;8.618;2023-03-01T12:55:39;93930.13;;;11.32;29.61
70902;BME280;58548;47.210;8.618;2023-03-01T12:58:27;94016.34;;;11.94;29.78
70902;BME280;58548;47.210;8.618;2023-03-01T13:06:53;94028.88;;;11.99;29.62
70902;BME280;58548;47.210;8.618;2023-03-01T13:15:31;94020.38;;;11.97;29.38
70902;BME280;58548;47.210;8.618;2023-03-01T13:26:06;94023.19;;;11.95;29.80
70902;BME280;58548;47.210;8.618;2023-03-01T13:28:52;94025.25;;;12.00;30.26
70902;BME280;58548;47.210;8.618;2023-03-01T13:33:52;93933.91;;;11.29;30.18
70902;BME280;58548;47.210;8.618;2023-03-01T13:39:04;93949.34;;;11.11;30.27
70902;BME280;58548;47.210;8.618;2023-03-01T13:49:56;94037.59;;;11.51;30.86
70902;BME280;58548;47.210;8.618;2023-03-01T13:52:45;94037.72;;;11.36;30.52
70902;BME280;58548;47.210;8.618;2023-03-01T13:55:19;93976.66;;;11.01;30.68
70902;BME280;58548;47.210;8.618;2023-03-01T13:58:00;93956.06;;;10.85;30.61
70902;BME280;58548;47.210;8.618;2023-03-01T14:00:38;94033.53;;;11.48;30.75
70902;BME280;58548;47.210;8.618;2023-03-01T14:03:15;94050.22;;;11.47;30.96
70902;BME280;58548;47.210;8.618;2023-03-01T14:05:50;93945.28;;;10.53;30.92
70902;BME280;58548;47.210;8.618;2023-03-01T14:08:28;94036.38;;;11.53;30.99
70902;BME280;58548;47.210;8.618;2023-03-01T14:11:02;94039.63;;;11.62;30.85
70902;BME280;58548;47.210;8.618;2023-03-01T14:19:18;94011.06;;;11.60;30.06
70902;BME280;58548;47.210;8.618;2023-03-01T14:24:48;93998.16;;;11.59;31.09
70902;BME280;58548;47.210;8.618;2023-03-01T14:27:20;94020.38;;;11.90;30.13
70902;BME280;58548;47.210;8.618;2023-03-01T14:30:11;93906.75;;;11.17;30.71
70902;BME280;58548;47.210;8.618;2023-03-01T14:32:38;94040.06;;;11.79;30.79
70902;BME280;58548;47.210;8.618;2023-03-01T14:35:31;94023.38;;;11.80;30.15
70902;BME280;58548;47.210;8.618;2023-03-01T14:38:00;94021.56;;;11.87;30.37
70902;BME280;58548;47.210;8.618;2023-03-01T14:40:34;94023.78;;;11.90;30.68
70902;BME280;58548;47.210;8.618;2023-03-01T14:43:07;94013.06;;;11.72;30.64
70902;BME280;58548;47.210;8.618;2023-03-01T14:45:34;93973.38;;;11.48;30.80
70902;BME280;58548;47.210;8.618;2023-03-01T14:48:06;94007.22;;;11.70;31.26
70902;BME280;58548;47.210;8.618;2023-03-01T14:50:35;93965.13;;;11.38;30.82
70902;BME280;58548;47.210;8.618;2023-03-01T14:53:16;94016.91;;;11.76;30.86
70902;BME280;58548;47.210;8.618;2023-03-01T14:55:47;93956.22;;;11.25;30.79
70902;BME280;58548;47.210;8.618;2023-03-01T14:58:19;94025.56;;;11.76;30.98
70902;BME280;58548;47.210;8.618;2023-03-01T15:00:55;94021.16;;;11.77;30.97
70902;BME280;58548;47.210;8.618;2023-03-01T15:03:37;93992.91;;;11.52;30.54
70902;BME280;58548;47.210;8.618;2023-03-01T15:06:09;93881.72;;;10.81;30.79
70902;BME280;58548;47.210;8.618;2023-03-01T15:08:44;94007.03;;;11.65;30.84
70902;BME280;58548;47.210;8.618;2023-03-01T15:11:23;94015.88;;;11.64;31.40
70902;BME280;58548;47.210;8.618;2023-03-01T15:13:53;94012.06;;;11.59;30.73
70902;BME280;58548;47.210;8.618;2023-03-01T15:16:29;94022.28;;;11.54;30.92
70902;BME280;58548;47.210;8.618;2023-03-01T15:18:59;94019.06;;;11.59;30.79
70902;BME280;58548;47.210;8.618;2023-03-01T15:21:34;94014.66;;;11.59;31.12